Time;durP1;ratioP1;P1;durP2;ratioP2;P2;SDS_P1;SDS_P2;PMS_P1;PMS_P2;Temp;Humidity;BMP_temperature;BMP_pressure;BME280_temperature;BME280_humidity;BME280_pressure;Samples;Min_cycle;Max_cycle;Signal;HPM_P1;HPM_P2
2022/07/16 00:01:23;;;;;;;;;;;;;;;16.20;60.58;102054.69;5057819;28;19932;-58
2022/07/16 00:03:59;;;;;;;;;;;;;;;16.17;60.62;102055.03;5060105;28;19936;-57
2022/07/16 00:06:25;;;;;;;;;;;;;;;16.21;60.23;102053.69;5062443;28;19924;-57
2022/07/16 00:08:50;;;;;;;;;;;;;;;16.24;60.16;102057.88;5066426;28;20343;-58
2022/07/16 00:11:16;;;;;;;;;;;;;;;16.27;59.90;102046.81;5056454;28;20275;-58
2022/07/16 00:13:41;;;;;;;;;;;;;;;16.31;60.04;102058.00;5054407;28;19978;-58
2022/07/16 00:16:07;;;;;;;;;;;;;;;16.34;60.22;102057.69;5061277;28;20419;-58
2022/07/16 00:21:16;;;;;;;;;;;;;;;16.35;62.09;102062.03;5056750;28;19982;-59
2022/07/16 00:23:41;;;;;;;;;;;;;;;16.28;61.77;102067.22;5061821;28;20407;-59
2022/07/16 00:26:08;;;;;;;;;;;;;;;16.13;60.82;102061.72;5068056;28;21307;-58
2022/07/16 00:28:33;;;;;;;;;;;;;;;16.09;60.83;102071.91;5063858;28;19955;-58
2022/07/16 00:30:58;;;;;;;;;;;;;;;16.10;61.05;102072.75;5061287;28;19931;-58
2022/07/16 00:33:24;;;;;;;;;;;;;;;16.10;61.17;102070.09;5071286;28;19964;-57
2022/07/16 00:35:49;;;;;;;;;;;;;;;16.13;60.91;102067.91;5063022;28;20454;-58
2022/07/16 00:38:14;;;;;;;;;;;;;;;16.13;60.75;102072.41;5064709;28;20038;-57
2022/07/16 00:40:39;;;;;;;;;;;;;;;16.11;61.04;102069.09;5071252;28;19924;-58
2022/07/16 00:43:09;;;;;;;;;;;;;;;16.11;60.94;102072.59;5063760;28;19925;-57
2022/07/16 00:45:34;;;;;;;;;;;;;;;16.12;61.06;102070.75;5063560;28;19936;-58
2022/07/16 00:47:59;;;;;;;;;;;;;;;16.13;60.75;102067.06;5062873;28;19921;-58
2022/07/16 00:50:24;;;;;;;;;;;;;;;16.10;60.68;102067.41;5061741;28;19947;-58
2022/07/16 00:52:50;;;;;;;;;;;;;;;16.12;60.67;102066.25;5064677;28;19925;-58
2022/07/16 00:55:15;;;;;;;;;;;;;;;16.11;60.87;102067.25;5062559;28;19951;-57
2022/07/16 00:57:40;;;;;;;;;;;;;;;16.10;61.04;102064.75;5063030;28;19934;-58
2022/07/16 01:00:06;;;;;;;;;;;;;;;16.08;60.85;102064.09;5063951;28;19924;-57
2022/07/16 01:02:33;;;;;;;;;;;;;;;16.07;60.83;102065.91;5061117;28;19925;-58
2022/07/16 01:04:58;;;;;;;;;;;;;;;16.08;61.60;102061.41;5062927;28;20023;-59
2022/07/16 01:07:23;;;;;;;;;;;;;;;16.11;60.87;102063.72;5063367;28;20085;-58
2022/07/16 01:09:50;;;;;;;;;;;;;;;16.11;61.30;102063.72;5071218;28;19923;-58
2022/07/16 01:12:16;;;;;;;;;;;;;;;16.12;61.34;102060.03;5045039;28;19943;-58
2022/07/16 01:14:41;;;;;;;;;;;;;;;16.14;60.86;102058.06;5070856;28;19925;-58
2022/07/16 01:17:07;;;;;;;;;;;;;;;16.18;60.84;102054.00;5061713;28;20390;-57
2022/07/16 01:19:33;;;;;;;;;;;;;;;16.19;61.03;102047.66;5050245;28;19925;-58
2022/07/16 01:21:58;;;;;;;;;;;;;;;16.21;60.97;102048.34;5057476;28;20595;-58
2022/07/16 01:24:23;;;;;;;;;;;;;;;16.22;60.98;102054.50;5060927;28;19955;-57
2022/07/16 01:26:48;;;;;;;;;;;;;;;16.22;60.91;102039.31;5056624;28;19935;-58
2022/07/16 01:29:14;;;;;;;;;;;;;;;16.23;60.59;102051.66;5064762;28;19925;-57
2022/07/16 01:31:39;;;;;;;;;;;;;;;16.27;60.80;102047.66;5054950;28;20930;-58
2022/07/16 01:36:59;;;;;;;;;;;;;;;16.24;60.72;102053.34;5056274;28;19974;-58
2022/07/16 01:39:25;;;;;;;;;;;;;;;16.24;60.94;102058.69;5061605;28;19924;-57
2022/07/16 01:41:54;;;;;;;;;;;;;;;16.23;60.83;102062.38;5039593;28;19931;-57
2022/07/16 01:44:20;;;;;;;;;;;;;;;16.21;61.14;102064.41;5068965;28;19924;-58
2022/07/16 01:46:46;;;;;;;;;;;;;;;16.21;60.79;102067.06;5051768;28;19924;-58
2022/07/16 01:49:11;;;;;;;;;;;;;;;16.20;61.24;102068.09;5053739;28;19925;-58
2022/07/16 01:51:36;;;;;;;;;;;;;;;16.19;61.12;102063.72;5054007;28;20015;-57
2022/07/16 01:54:01;;;;;;;;;;;;;;;16.21;60.94;102064.41;5060362;28;19924;-58
2022/07/16 01:56:26;;;;;;;;;;;;;;;16.21;61.44;102066.22;5054580;28;19928;-58
2022/07/16 01:58:52;;;;;;;;;;;;;;;16.16;60.78;102066.75;5063374;28;19924;-58
2022/07/16 02:01:17;;;;;;;;;;;;;;;16.15;60.96;102054.38;5065705;28;20429;-58
2022/07/16 02:03:42;;;;;;;;;;;;;;;16.17;60.84;102060.38;5059175;28;19967;-58
2022/07/16 02:06:07;;;;;;;;;;;;;;;16.12;60.85;102052.00;5062041;28;19959;-58
2022/07/16 02:08:33;;;;;;;;;;;;;;;16.12;61.24;102054.69;5058131;28;20373;-58
2022/07/16 02:10:58;;;;;;;;;;;;;;;16.11;60.65;102053.03;5059866;28;20712;-58
2022/07/16 02:13:23;;;;;;;;;;;;;;;16.11;61.17;102051.19;5057872;28;19938;-58
2022/07/16 02:15:48;;;;;;;;;;;;;;;16.12;60.82;102054.69;5061071;28;20286;-57
2022/07/16 02:18:14;;;;;;;;;;;;;;;16.14;60.83;102036.66;5054720;28;19921;-58
2022/07/16 02:20:39;;;;;;;;;;;;;;;16.13;60.65;102045.66;5067161;28;20003;-58
2022/07/16 02:23:04;;;;;;;;;;;;;;;16.13;60.80;102045.66;5070763;28;19960;-58
2022/07/16 02:25:29;;;;;;;;;;;;;;;16.14;60.66;102042.81;5059719;28;19935;-58
2022/07/16 02:28:07;;;;;;;;;;;;;;;16.14;60.78;102042.00;5059208;28;19926;-58
2022/07/16 02:30:37;;;;;;;;;;;;;;;16.18;60.47;102043.31;5059903;28;19925;-57
2022/07/16 02:33:02;;;;;;;;;;;;;;;16.17;60.83;102047.00;5054633;28;19924;-59
2022/07/16 02:35:28;;;;;;;;;;;;;;;16.19;60.55;102046.84;5060806;28;20320;-58
2022/07/16 02:37:53;;;;;;;;;;;;;;;16.19;60.35;102050.31;5059805;28;20459;-58
2022/07/16 02:40:18;;;;;;;;;;;;;;;16.24;60.73;102041.81;5069860;28;19950;-58
2022/07/16 02:42:43;;;;;;;;;;;;;;;16.13;60.67;102041.16;5061974;28;19924;-57
2022/07/16 02:45:10;;;;;;;;;;;;;;;16.12;60.65;102038.63;5061753;28;20402;-58
2022/07/16 02:47:35;;;;;;;;;;;;;;;16.13;60.49;102040.31;5061985;28;19927;-58
2022/07/16 02:50:00;;;;;;;;;;;;;;;16.13;60.47;102037.63;5053871;28;20310;-58
2022/07/16 02:52:26;;;;;;;;;;;;;;;16.13;60.42;102045.66;5058425;28;20374;-59
2022/07/16 02:54:51;;;;;;;;;;;;;;;16.10;60.34;102033.44;5061513;28;19931;-58
2022/07/16 02:57:16;;;;;;;;;;;;;;;16.11;60.63;102036.97;5054945;28;20490;-57
2022/07/16 02:59:41;;;;;;;;;;;;;;;16.09;60.32;102039.00;5061071;28;19925;-58
2022/07/16 03:02:06;;;;;;;;;;;;;;;16.10;60.52;102037.97;5060951;28;20445;-58
2022/07/16 03:04:32;;;;;;;;;;;;;;;16.10;60.28;102037.97;5056124;28;20007;-57
2022/07/16 03:06:57;;;;;;;;;;;;;;;16.12;60.45;102044.84;5074952;28;19924;-58
2022/07/16 03:09:22;;;;;;;;;;;;;;;16.08;60.49;102048.84;5063915;28;19924;-58
2022/07/16 03:11:47;;;;;;;;;;;;;;;16.08;60.64;102053.38;5060424;28;20011;-57
2022/07/16 03:14:12;;;;;;;;;;;;;;;16.06;60.56;102050.00;5066535;28;19924;-58
2022/07/16 03:16:38;;;;;;;;;;;;;;;16.06;60.74;102052.69;5058918;28;19982;-58
2022/07/16 03:19:03;;;;;;;;;;;;;;;16.03;61.01;102050.38;5062358;28;20282;-58
2022/07/16 03:21:28;;;;;;;;;;;;;;;16.00;61.24;102051.53;5056991;28;19924;-57
2022/07/16 03:23:53;;;;;;;;;;;;;;;15.97;60.98;102052.72;5067130;28;19979;-58
2022/07/16 03:26:18;;;;;;;;;;;;;;;15.97;61.01;102052.72;5064917;28;20482;-58
2022/07/16 03:28:44;;;;;;;;;;;;;;;15.97;61.39;102050.03;5058849;28;19920;-57
2022/07/16 03:31:09;;;;;;;;;;;;;;;15.94;61.37;102063.72;5068649;28;19931;-58
2022/07/16 03:33:34;;;;;;;;;;;;;;;15.92;61.73;102059.50;5064439;28;19947;-57
2022/07/16 03:35:59;;;;;;;;;;;;;;;15.93;61.63;102059.38;5064832;28;20374;-58
2022/07/16 03:41:08;;;;;;;;;;;;;;;15.90;61.74;102067.72;5069805;28;19970;-57
2022/07/16 03:43:33;;;;;;;;;;;;;;;15.89;61.83;102063.34;5066812;28;19955;-57
2022/07/16 03:45:58;;;;;;;;;;;;;;;15.87;61.83;102062.69;5064985;28;20318;-57
2022/07/16 03:48:24;;;;;;;;;;;;;;;15.87;61.93;102073.41;5059692;28;19924;-58
2022/07/16 03:50:49;;;;;;;;;;;;;;;15.83;62.19;102072.03;5061184;28;19928;-58
2022/07/16 03:53:14;;;;;;;;;;;;;;;15.83;62.32;102064.88;5056034;28;19928;-57
2022/07/16 03:55:39;;;;;;;;;;;;;;;15.79;62.31;102078.75;5063547;28;20023;-58
2022/07/16 03:58:05;;;;;;;;;;;;;;;15.78;62.39;102085.09;5065533;28;19955;-58
2022/07/16 04:00:30;;;;;;;;;;;;;;;15.74;62.17;102085.44;5061773;28;19928;-57
2022/07/16 04:02:55;;;;;;;;;;;;;;;15.77;62.92;102086.09;5059748;28;19981;-57
2022/07/16 04:05:20;;;;;;;;;;;;;;;15.75;62.79;102086.28;5063952;28;20432;-58
2022/07/16 04:07:46;;;;;;;;;;;;;;;15.74;62.81;102085.44;5050155;28;19924;-57
2022/07/16 04:10:12;;;;;;;;;;;;;;;15.76;62.87;102087.09;5068576;28;19928;-57
2022/07/16 04:12:37;;;;;;;;;;;;;;;15.76;63.15;102092.44;5065470;28;19928;-58
2022/07/16 04:15:03;;;;;;;;;;;;;;;15.74;63.00;102082.75;5060582;28;19931;-58
2022/07/16 04:17:28;;;;;;;;;;;;;;;15.74;62.98;102090.78;5076865;28;20618;-57
2022/07/16 04:19:53;;;;;;;;;;;;;;;15.76;63.32;102093.28;5065791;28;19970;-59
2022/07/16 04:22:18;;;;;;;;;;;;;;;15.74;63.52;102096.13;5067696;28;19935;-58
2022/07/16 04:24:43;;;;;;;;;;;;;;;15.74;63.72;102098.78;5063668;28;19924;-58
2022/07/16 04:27:09;;;;;;;;;;;;;;;15.72;63.55;102100.81;5058922;28;20254;-58
2022/07/16 04:29:34;;;;;;;;;;;;;;;15.72;63.94;102100.81;5058374;28;19928;-57
2022/07/16 04:31:59;;;;;;;;;;;;;;;15.72;63.62;102106.16;5062817;28;19924;-57
2022/07/16 04:34:24;;;;;;;;;;;;;;;15.72;63.84;102100.81;5057939;28;19924;-57
2022/07/16 04:36:49;;;;;;;;;;;;;;;15.73;64.38;102105.16;5062174;28;19931;-58
2022/07/16 04:39:15;;;;;;;;;;;;;;;15.72;63.89;102103.47;5068709;28;20069;-58
2022/07/16 04:41:40;;;;;;;;;;;;;;;15.74;64.56;102098.78;5067626;28;20001;-62
2022/07/16 04:44:05;;;;;;;;;;;;;;;15.80;64.99;102112.50;5063435;28;19935;-62
2022/07/16 04:46:30;;;;;;;;;;;;;;;15.80;65.10;102109.84;5063791;28;19939;-61
2022/07/16 04:48:56;;;;;;;;;;;;;;;15.76;64.70;102109.34;5063889;28;19927;-61
2022/07/16 04:51:21;;;;;;;;;;;;;;;15.79;67.52;102102.81;5059246;28;19929;-62
2022/07/16 04:53:46;;;;;;;;;;;;;;;15.81;65.96;102114.19;5053184;28;19928;-61
2022/07/16 04:56:11;;;;;;;;;;;;;;;15.83;65.99;102110.34;5040509;28;20460;-60
2022/07/16 04:58:37;;;;;;;;;;;;;;;15.84;66.76;102119.22;5053978;28;20692;-62
2022/07/16 05:01:02;;;;;;;;;;;;;;;15.81;66.72;102116.84;5052740;28;19928;-61
2022/07/16 05:03:27;;;;;;;;;;;;;;;15.90;68.44;102123.91;5054077;28;19932;-62
2022/07/16 05:05:52;;;;;;;;;;;;;;;15.94;69.16;102124.44;5052983;28;19928;-61
2022/07/16 05:08:17;;;;;;;;;;;;;;;15.87;68.90;102124.22;5056098;28;19982;-61
2022/07/16 05:10:43;;;;;;;;;;;;;;;15.94;69.51;102125.25;5067745;28;19924;-62
2022/07/16 05:13:10;;;;;;;;;;;;;;;15.97;69.96;102119.59;5055199;28;20401;-61
2022/07/16 05:15:35;;;;;;;;;;;;;;;15.96;70.59;102131.28;5051992;28;19932;-62
2022/07/16 05:18:01;;;;;;;;;;;;;;;15.95;70.61;102134.97;5053686;28;19921;-62
2022/07/16 05:20:26;;;;;;;;;;;;;;;15.98;71.80;102134.63;5055486;28;19924;-61
2022/07/16 05:22:51;;;;;;;;;;;;;;;16.00;71.11;102135.28;5052106;28;19924;-62
2022/07/16 05:25:16;;;;;;;;;;;;;;;16.04;71.13;102137.66;5052085;28;21164;-61
2022/07/16 05:27:42;;;;;;;;;;;;;;;16.09;71.66;102146.00;5053978;28;19978;-61
2022/07/16 05:30:09;;;;;;;;;;;;;;;16.14;72.03;102143.69;5054760;28;19948;-61
2022/07/16 05:32:34;;;;;;;;;;;;;;;16.17;72.53;102147.88;5055293;28;19935;-61
2022/07/16 05:34:59;;;;;;;;;;;;;;;16.27;73.26;102148.50;5058743;28;19928;-62
2022/07/16 05:37:24;;;;;;;;;;;;;;;16.26;73.31;102142.34;5053453;28;20386;-61
2022/07/16 05:39:50;;;;;;;;;;;;;;;16.28;73.92;102150.19;5055883;28;19947;-62
2022/07/16 05:42:15;;;;;;;;;;;;;;;16.37;74.26;102148.34;5053618;28;19921;-61
2022/07/16 05:44:40;;;;;;;;;;;;;;;16.35;73.70;102145.00;5059281;28;19929;-61
2022/07/16 05:47:05;;;;;;;;;;;;;;;16.37;73.81;102148.34;5055738;28;19927;-62
2022/07/16 05:49:31;;;;;;;;;;;;;;;16.52;75.23;102146.66;5052758;28;19925;-60
2022/07/16 05:51:56;;;;;;;;;;;;;;;16.59;74.72;102156.69;5055300;28;19925;-60
2022/07/16 05:54:21;;;;;;;;;;;;;;;16.71;75.28;102150.00;5057388;28;20278;-59
2022/07/16 05:56:46;;;;;;;;;;;;;;;16.75;74.66;102151.31;5053435;28;19933;-61
2022/07/16 05:59:11;;;;;;;;;;;;;;;16.83;74.35;102150.47;5057403;28;19998;-58
2022/07/16 06:01:36;;;;;;;;;;;;;;;16.90;74.49;102146.09;5064036;28;19969;-60
2022/07/16 06:04:02;;;;;;;;;;;;;;;16.99;74.69;102156.78;5052782;28;19916;-62
2022/07/16 06:06:27;;;;;;;;;;;;;;;17.11;74.27;102159.97;5052000;28;19924;-59
2022/07/16 06:08:53;;;;;;;;;;;;;;;17.21;74.49;102172.16;5054914;28;20086;-59
2022/07/16 06:11:18;;;;;;;;;;;;;;;17.21;74.10;102171.31;5053623;28;19925;-60
2022/07/16 06:13:43;;;;;;;;;;;;;;;17.40;74.68;102174.59;5058423;28;19920;-61
2022/07/16 06:16:08;;;;;;;;;;;;;;;17.37;74.54;102180.31;5057819;28;19927;-59
2022/07/16 06:18:34;;;;;;;;;;;;;;;17.42;73.51;102186.81;5051773;28;19964;-59
2022/07/16 06:20:59;;;;;;;;;;;;;;;17.55;73.34;102191.63;5053630;28;20876;-59
2022/07/16 06:23:24;;;;;;;;;;;;;;;17.63;72.92;102187.22;5054445;28;20046;-60
2022/07/16 06:25:49;;;;;;;;;;;;;;;17.72;72.47;102188.84;5054931;28;19952;-59
2022/07/16 06:28:15;;;;;;;;;;;;;;;17.80;71.87;102196.03;5054054;28;19971;-59
2022/07/16 06:30:40;;;;;;;;;;;;;;;17.93;71.76;102200.81;5056531;28;19973;-59
2022/07/16 06:33:05;;;;;;;;;;;;;;;17.86;71.55;102196.16;5068963;28;19917;-60
2022/07/16 06:35:31;;;;;;;;;;;;;;;17.84;70.96;102203.53;5070454;28;19920;-59
2022/07/16 06:37:57;;;;;;;;;;;;;;;17.88;71.22;102204.84;5066475;28;19974;-60
2022/07/16 06:40:22;;;;;;;;;;;;;;;17.92;70.54;102207.19;5051324;28;19924;-59
2022/07/16 06:42:47;;;;;;;;;;;;;;;17.86;70.54;102206.06;5060940;28;19924;-61
2022/07/16 06:45:13;;;;;;;;;;;;;;;17.73;70.86;102209.31;5065943;28;19951;-60
2022/07/16 06:47:38;;;;;;;;;;;;;;;17.55;70.54;102215.75;5066787;28;20042;-59
2022/07/16 06:50:03;;;;;;;;;;;;;;;17.52;70.88;102216.09;5079252;28;19927;-58
2022/07/16 06:52:29;;;;;;;;;;;;;;;17.51;70.70;102211.75;5058684;28;19924;-60
2022/07/16 06:54:54;;;;;;;;;;;;;;;17.52;70.37;102216.09;5063234;28;19931;-62
2022/07/16 06:57:21;;;;;;;;;;;;;;;17.56;70.38;102221.97;5067418;28;19944;-60
2022/07/16 06:59:46;;;;;;;;;;;;;;;17.50;69.32;102218.13;5067669;28;19920;-59
2022/07/16 07:02:13;;;;;;;;;;;;;;;17.52;69.44;102221.44;5063319;28;19931;-59
2022/07/16 07:04:38;;;;;;;;;;;;;;;17.57;69.18;102223.63;5074544;28;19936;-60
2022/07/16 07:07:04;;;;;;;;;;;;;;;17.58;68.81;102236.84;5066448;28;20298;-61
2022/07/16 07:09:29;;;;;;;;;;;;;;;17.70;68.30;102244.50;5062972;28;19931;-60
2022/07/16 07:11:54;;;;;;;;;;;;;;;17.65;68.06;102239.69;5059302;28;20302;-59
2022/07/16 07:14:19;;;;;;;;;;;;;;;17.74;67.69;102243.16;5066666;28;19920;-60
2022/07/16 07:16:44;;;;;;;;;;;;;;;17.86;66.93;102249.00;5064689;28;19924;-59
2022/07/16 07:19:09;;;;;;;;;;;;;;;18.08;66.30;102252.75;5048598;28;20756;-61
2022/07/16 07:21:35;;;;;;;;;;;;;;;18.14;65.34;102252.03;5072539;28;20380;-61
2022/07/16 07:24:00;;;;;;;;;;;;;;;18.37;63.01;102256.59;5060954;28;19924;-59
2022/07/16 07:26:26;;;;;;;;;;;;;;;18.29;63.04;102253.94;5067430;28;19931;-61
2022/07/16 07:28:51;;;;;;;;;;;;;;;18.31;64.44;102262.69;5065197;28;19920;-60
2022/07/16 07:31:16;;;;;;;;;;;;;;;18.49;63.63;102264.19;5061725;28;20426;-62
2022/07/16 07:33:41;;;;;;;;;;;;;;;18.52;62.37;102258.47;5064000;28;20355;-60
2022/07/16 07:36:06;;;;;;;;;;;;;;;18.61;61.31;102260.09;5055250;28;20505;-59
2022/07/16 07:38:32;;;;;;;;;;;;;;;18.58;60.60;102257.75;5053984;28;19944;-59
2022/07/16 07:40:57;;;;;;;;;;;;;;;18.46;59.55;102269.94;5061726;28;19933;-60
2022/07/16 07:43:22;;;;;;;;;;;;;;;18.51;60.68;102278.31;5065083;28;19934;-61
2022/07/16 07:45:47;;;;;;;;;;;;;;;18.47;60.65;102268.94;5079362;28;19924;-60
2022/07/16 07:48:13;;;;;;;;;;;;;;;18.35;61.32;102269.34;5055814;28;19924;-59
2022/07/16 07:50:38;;;;;;;;;;;;;;;18.56;60.16;102281.28;5055671;28;20013;-60
2022/07/16 07:53:03;;;;;;;;;;;;;;;18.50;59.92;102277.47;5062475;28;19981;-60
2022/07/16 07:55:30;;;;;;;;;;;;;;;18.63;59.74;102274.19;5064482;28;19921;-60
2022/07/16 07:57:55;;;;;;;;;;;;;;;18.59;60.15;102274.72;5064493;28;19925;-59
2022/07/16 08:00:21;;;;;;;;;;;;;;;18.59;60.24;102283.59;5044474;28;19929;-58
2022/07/16 08:02:46;;;;;;;;;;;;;;;18.68;60.04;102285.22;5065239;28;20355;-62
2022/07/16 08:05:11;;;;;;;;;;;;;;;18.77;59.54;102282.47;5064872;28;19924;-59
2022/07/16 08:07:37;;;;;;;;;;;;;;;18.77;59.61;102293.22;5062915;28;19928;-59
2022/07/16 08:10:02;;;;;;;;;;;;;;;18.80;60.02;102292.84;5068436;28;20383;-61
2022/07/16 08:12:28;;;;;;;;;;;;;;;18.84;59.92;102296.84;5058887;28;19929;-60
2022/07/16 08:14:53;;;;;;;;;;;;;;;18.88;60.06;102297.31;5065595;28;19924;-60
2022/07/16 08:17:18;;;;;;;;;;;;;;;18.92;59.84;102302.16;5062917;28;19924;-61
2022/07/16 08:19:43;;;;;;;;;;;;;;;19.04;59.96;102304.44;5052659;28;19929;-59
2022/07/16 08:22:08;;;;;;;;;;;;;;;19.17;59.74;102304.66;5064172;28;19959;-59
2022/07/16 08:27:17;;;;;;;;;;;;;;;19.27;57.54;102314.28;5056674;28;20313;-60
2022/07/16 08:29:43;;;;;;;;;;;;;;;19.34;58.77;102310.69;5068136;28;19924;-59
2022/07/16 08:32:08;;;;;;;;;;;;;;;19.48;57.99;102311.72;5062464;28;19964;-59
2022/07/16 08:34:33;;;;;;;;;;;;;;;19.53;58.18;102313.03;5061152;28;20058;-60
2022/07/16 08:36:58;;;;;;;;;;;;;;;19.64;56.10;102320.63;5058628;28;19969;-59
2022/07/16 08:39:24;;;;;;;;;;;;;;;19.49;55.31;102324.13;5063745;28;20366;-59
2022/07/16 08:41:49;;;;;;;;;;;;;;;19.56;57.05;102324.25;5071163;28;19924;-60
2022/07/16 08:44:15;;;;;;;;;;;;;;;19.64;55.59;102331.41;5064650;28;20732;-59
2022/07/16 08:46:40;;;;;;;;;;;;;;;19.81;57.12;102333.88;5066040;28;19928;-60
2022/07/16 08:49:06;;;;;;;;;;;;;;;19.85;55.36;102336.03;5074034;28;20362;-60
2022/07/16 08:51:32;;;;;;;;;;;;;;;19.95;56.50;102343.81;5061018;28;20297;-60
2022/07/16 08:54:08;;;;;;;;;;;;;;;20.05;55.83;102338.16;5061431;28;20013;-59
2022/07/16 08:56:34;;;;;;;;;;;;;;;19.98;55.15;102339.94;5051512;28;20383;-61
2022/07/16 08:59:00;;;;;;;;;;;;;;;20.12;53.32;102344.44;5064184;28;19998;-60
2022/07/16 09:01:29;;;;;;;;;;;;;;;19.81;53.77;102352.72;5064034;28;20972;-59
2022/07/16 09:03:54;;;;;;;;;;;;;;;19.73;53.86;102351.78;5062394;28;20420;-60
2022/07/16 09:06:20;;;;;;;;;;;;;;;19.65;53.86;102349.19;5057429;28;19932;-60
2022/07/16 09:08:45;;;;;;;;;;;;;;;19.59;54.92;102355.31;5058132;28;19924;-61
2022/07/16 09:11:18;;;;;;;;;;;;;;;19.59;54.37;102355.31;5061147;28;19920;-60
2022/07/16 09:13:59;;;;;;;;;;;;;;;19.58;54.32;102357.16;5058923;28;19924;-60
2022/07/16 09:16:31;;;;;;;;;;;;;;;19.47;55.49;102353.09;5060183;28;19924;-61
2022/07/16 09:19:02;;;;;;;;;;;;;;;19.75;54.40;102354.31;5077435;28;20442;-59
2022/07/16 09:21:28;;;;;;;;;;;;;;;19.97;54.24;102347.16;5053322;28;20011;-60
2022/07/16 09:23:53;;;;;;;;;;;;;;;20.23;53.52;102355.75;5062182;28;20015;-60
2022/07/16 09:26:18;;;;;;;;;;;;;;;20.32;51.36;102368.06;5060494;28;19982;-60
2022/07/16 09:28:45;;;;;;;;;;;;;;;20.28;51.73;102359.53;5068788;28;19920;-61
2022/07/16 09:31:11;;;;;;;;;;;;;;;20.41;51.18;102363.41;5050527;28;20326;-60
2022/07/16 09:33:37;;;;;;;;;;;;;;;20.42;51.70;102360.53;5062079;28;19952;-61
2022/07/16 09:36:09;;;;;;;;;;;;;;;20.59;51.30;102354.06;5063907;28;19920;-59
2022/07/16 09:38:47;;;;;;;;;;;;;;;20.67;51.46;102362.03;5063660;28;20379;-59
2022/07/16 09:41:15;;;;;;;;;;;;;;;20.91;49.40;102357.28;5050044;28;19925;-58
2022/07/16 09:43:42;;;;;;;;;;;;;;;20.72;49.19;102375.75;5063696;28;19921;-58
2022/07/16 09:46:07;;;;;;;;;;;;;;;20.78;49.56;102366.88;5062956;28;20478;-59
2022/07/16 09:48:35;;;;;;;;;;;;;;;21.00;49.73;102366.06;5063324;28;20015;-59
2022/07/16 09:51:19;;;;;;;;;;;;;;;21.23;49.07;102371.25;5050007;28;19925;-59
2022/07/16 09:53:46;;;;;;;;;;;;;;;21.25;49.32;102374.59;5058437;28;19931;-59
2022/07/16 09:56:13;;;;;;;;;;;;;;;21.22;49.19;102370.41;5066856;28;19952;-60
2022/07/16 09:58:38;;;;;;;;;;;;;;;21.42;48.18;102377.00;5072485;28;20477;-59
2022/07/16 10:01:04;;;;;;;;;;;;;;;21.41;48.63;102388.81;5062891;28;20016;-59
2022/07/16 10:03:29;;;;;;;;;;;;;;;21.40;47.58;102381.75;5051636;28;19935;-59
2022/07/16 10:05:55;;;;;;;;;;;;;;;21.45;47.27;102390.06;5062196;28;19937;-59
2022/07/16 10:08:21;;;;;;;;;;;;;;;21.26;47.33;102387.03;5044863;28;20011;-60
2022/07/16 10:10:46;;;;;;;;;;;;;;;21.39;46.82;102385.47;5063038;28;19925;-59
2022/07/16 10:13:12;;;;;;;;;;;;;;;21.40;46.66;102382.59;5062667;28;19929;-58
2022/07/16 10:15:38;;;;;;;;;;;;;;;21.55;46.51;102395.16;5062707;28;19924;-59
2022/07/16 10:18:04;;;;;;;;;;;;;;;21.57;45.33;102393.06;5057776;28;19925;-58
2022/07/16 10:20:34;;;;;;;;;;;;;;;21.61;45.06;102388.97;5066510;28;20359;-59
2022/07/16 10:22:59;;;;;;;;;;;;;;;21.57;45.25;102393.91;5066975;28;20378;-59
2022/07/16 10:25:26;;;;;;;;;;;;;;;21.63;45.28;102403.09;5056803;28;19928;-58
2022/07/16 10:27:52;;;;;;;;;;;;;;;21.59;45.33;102407.19;5059803;28;19971;-59
2022/07/16 10:30:23;;;;;;;;;;;;;;;21.49;45.65;102407.56;5065168;28;19948;-59
2022/07/16 10:33:00;;;;;;;;;;;;;;;21.58;46.25;102406.38;5056091;28;20015;-58
2022/07/16 10:35:29;;;;;;;;;;;;;;;21.64;44.68;102411.00;5062132;28;20011;-57
2022/07/16 10:38:11;;;;;;;;;;;;;;;21.64;45.30;102410.16;5063228;28;19931;-58
2022/07/16 10:40:37;;;;;;;;;;;;;;;21.56;44.89;102408.44;5051564;28;19920;-59
2022/07/16 10:43:13;;;;;;;;;;;;;;;21.29;46.38;102402.84;5053758;28;20009;-59
2022/07/16 10:45:51;;;;;;;;;;;;;;;21.49;45.61;102404.84;5064253;28;20015;-58
2022/07/16 10:48:17;;;;;;;;;;;;;;;21.80;45.38;102408.22;5062230;28;19924;-58
2022/07/16 10:51:02;;;;;;;;;;;;;;;21.92;44.73;102406.63;5062628;28;20122;-59
2022/07/16 10:53:27;;;;;;;;;;;;;;;21.77;44.46;102418.34;5061797;28;19947;-58
2022/07/16 10:55:52;;;;;;;;;;;;;;;21.75;44.48;102416.88;5071342;28;20351;-59
2022/07/16 10:58:22;;;;;;;;;;;;;;;21.92;44.61;102417.41;5069846;28;19920;-58
2022/07/16 11:00:47;;;;;;;;;;;;;;;22.03;44.16;102413.31;5050431;28;19929;-58
2022/07/16 11:03:14;;;;;;;;;;;;;;;21.98;44.23;102413.91;5044618;28;19930;-58
2022/07/16 11:05:41;;;;;;;;;;;;;;;22.17;43.71;102412.31;5062156;28;19924;-57
2022/07/16 11:08:11;;;;;;;;;;;;;;;22.16;44.01;102416.06;5059411;28;20371;-57
2022/07/16 11:10:37;;;;;;;;;;;;;;;21.97;44.64;102416.81;5060138;28;19931;-59
2022/07/16 11:13:09;;;;;;;;;;;;;;;21.70;45.83;102420.19;5056073;28;20512;-59
2022/07/16 11:15:34;;;;;;;;;;;;;;;21.47;45.74;102418.53;5056624;28;20336;-59
2022/07/16 11:18:00;;;;;;;;;;;;;;;21.35;46.54;102423.66;5057225;28;19925;-59
2022/07/16 11:20:35;;;;;;;;;;;;;;;21.52;46.40;102423.38;5055621;28;19921;-60
2022/07/16 11:23:05;;;;;;;;;;;;;;;21.78;46.20;102421.91;5049049;28;19921;-59
2022/07/16 11:25:30;;;;;;;;;;;;;;;22.11;46.47;102421.22;5051813;28;19924;-59
2022/07/16 11:27:59;;;;;;;;;;;;;;;22.47;45.02;102422.00;5054725;28;20805;-58
2022/07/16 11:30:24;;;;;;;;;;;;;;;22.23;44.52;102435.00;5054889;28;20481;-58
2022/07/16 11:32:49;;;;;;;;;;;;;;;21.89;43.80;102428.59;5054389;28;19928;-61
2022/07/16 11:35:15;;;;;;;;;;;;;;;21.67;45.10;102430.50;5059830;28;20363;-59
2022/07/16 11:37:54;;;;;;;;;;;;;;;21.44;46.11;102431.59;5051597;28;19935;-58
2022/07/16 11:40:19;;;;;;;;;;;;;;;21.39;45.80;102429.47;5056415;28;20383;-58
2022/07/16 11:43:00;;;;;;;;;;;;;;;21.55;44.80;102433.75;5053673;28;19934;-60
2022/07/16 11:45:26;;;;;;;;;;;;;;;21.78;43.73;102424.59;5055586;28;20038;-59
2022/07/16 11:48:07;;;;;;;;;;;;;;;21.77;45.17;102418.34;5056277;28;19920;-58
2022/07/16 11:50:33;;;;;;;;;;;;;;;22.01;45.17;102424.28;5054146;28;20368;-59
2022/07/16 11:52:58;;;;;;;;;;;;;;;22.00;45.12;102427.22;5071322;28;19925;-60
2022/07/16 11:55:23;;;;;;;;;;;;;;;21.80;42.88;102433.31;5056150;28;19931;-59
2022/07/16 11:57:49;;;;;;;;;;;;;;;21.60;44.87;102431.31;5068331;28;19925;-58
2022/07/16 12:00:14;;;;;;;;;;;;;;;21.84;44.29;102442.69;5056439;28;19968;-59
2022/07/16 12:02:43;;;;;;;;;;;;;;;21.97;44.90;102427.59;5052649;28;22686;-58
2022/07/16 12:05:08;;;;;;;;;;;;;;;22.21;44.40;102430.84;5062689;28;20031;-59
2022/07/16 12:07:33;;;;;;;;;;;;;;;22.36;44.36;102436.94;5055700;28;20408;-59
2022/07/16 12:10:00;;;;;;;;;;;;;;;22.22;44.18;102429.81;5066599;28;20371;-59
2022/07/16 12:12:29;;;;;;;;;;;;;;;22.01;43.66;102428.88;5038957;28;20177;-58
2022/07/16 12:14:55;;;;;;;;;;;;;;;21.76;43.54;102437.47;5058881;28;19939;-58
2022/07/16 12:17:21;;;;;;;;;;;;;;;21.71;44.62;102427.25;5056459;28;19968;-61
2022/07/16 12:20:00;;;;;;;;;;;;;;;21.96;43.01;102434.88;5052504;28;19983;-58
2022/07/16 12:22:44;;;;;;;;;;;;;;;21.86;43.81;102424.44;5050937;28;20405;-58
2022/07/16 12:25:17;;;;;;;;;;;;;;;21.83;43.93;102430.25;5056099;28;19924;-59
2022/07/16 12:27:49;;;;;;;;;;;;;;;21.64;42.58;102432.59;5054149;28;19925;-58
2022/07/16 12:30:16;;;;;;;;;;;;;;;21.62;43.97;102440.03;5060262;28;20278;-58
2022/07/16 12:32:48;;;;;;;;;;;;;;;21.81;43.58;102437.69;5055055;28;19924;-58
2022/07/16 12:35:32;;;;;;;;;;;;;;;21.98;42.72;102435.53;5047941;28;20023;-58
2022/07/16 12:37:57;;;;;;;;;;;;;;;22.27;42.33;102440.84;5061160;28;20160;-58
2022/07/16 12:40:22;;;;;;;;;;;;;;;22.31;41.94;102437.53;5055184;28;19964;-58
2022/07/16 12:42:47;;;;;;;;;;;;;;;22.48;41.24;102442.59;5057049;28;19928;-58